createdAt,value
2018-09-30T00:00:13.840Z,2.83
2018-09-30T00:02:41.915Z,2.23
2018-09-30T00:05:10.002Z,1.77
2018-09-30T00:07:38.129Z,3.13
2018-09-30T00:10:06.223Z,2.43
2018-09-30T00:12:34.296Z,2.67
2018-09-30T00:15:02.471Z,2.27
2018-09-30T00:17:30.547Z,1.87
2018-09-30T00:19:58.616Z,2.13
2018-09-30T00:22:26.682Z,2.13
2018-09-30T00:25:00.198Z,2.67
2018-09-30T00:27:28.384Z,2.13
2018-09-30T00:29:56.421Z,2.33
2018-09-30T00:32:24.499Z,1.70
2018-09-30T00:34:52.582Z,2.77
2018-09-30T00:37:20.663Z,2.23
2018-09-30T00:39:49.316Z,2.07
2018-09-30T00:42:17.392Z,2.00
2018-09-30T00:44:45.442Z,2.33
2018-09-30T00:47:13.528Z,2.17
2018-09-30T00:49:41.660Z,2.00
2018-09-30T00:52:09.787Z,2.20
2018-09-30T00:54:37.852Z,1.93
2018-09-30T00:57:05.914Z,3.03
2018-09-30T00:59:33.978Z,2.03
2018-09-30T01:02:02.025Z,2.20
2018-09-30T01:04:30.046Z,1.90
2018-09-30T01:06:58.100Z,1.90
2018-09-30T01:09:26.222Z,2.10
2018-09-30T01:11:54.275Z,1.57
2018-09-30T01:14:22.372Z,1.97
2018-09-30T01:16:50.404Z,1.90
2018-09-30T01:19:18.456Z,2.03
2018-09-30T01:21:46.544Z,2.00
2018-09-30T01:24:14.584Z,2.10
2018-09-30T01:26:42.638Z,1.87
2018-09-30T01:29:10.697Z,1.90
2018-09-30T01:31:39.695Z,1.50
2018-09-30T01:34:07.833Z,1.83
2018-09-30T01:36:35.903Z,1.93
2018-09-30T01:39:04.515Z,2.03
2018-09-30T01:41:32.590Z,1.60
2018-09-30T01:44:00.670Z,1.50
2018-09-30T01:46:28.725Z,1.70
2018-09-30T01:48:56.896Z,1.87
2018-09-30T01:51:25.028Z,1.60
2018-09-30T01:53:53.074Z,1.40
2018-09-30T01:56:21.165Z,1.83
2018-09-30T01:58:49.211Z,1.97
2018-09-30T02:01:17.311Z,1.83
2018-09-30T02:03:45.409Z,1.80
2018-09-30T02:06:13.565Z,2.20
2018-09-30T02:08:41.621Z,1.90
2018-09-30T02:11:09.703Z,1.90
2018-09-30T02:13:37.766Z,1.70
2018-09-30T02:16:05.844Z,1.50
2018-09-30T02:18:33.890Z,1.90
2018-09-30T02:21:01.958Z,1.70
2018-09-30T02:23:30.024Z,1.70
2018-09-30T02:25:58.060Z,1.90
2018-09-30T02:28:26.108Z,2.07
2018-09-30T02:30:54.168Z,1.60
2018-09-30T02:33:22.300Z,1.43
2018-09-30T02:35:50.424Z,1.83
2018-09-30T02:38:18.482Z,1.70
2018-09-30T02:40:46.576Z,1.60
2018-09-30T02:43:14.653Z,1.87
2018-09-30T02:45:42.769Z,1.97
2018-09-30T02:48:10.853Z,2.10
2018-09-30T02:50:38.929Z,1.77
2018-09-30T02:53:08.024Z,1.90
2018-09-30T02:55:37.229Z,1.50
2018-09-30T02:58:05.399Z,1.87
2018-09-30T03:00:33.658Z,1.70
2018-09-30T03:03:01.920Z,1.93
2018-09-30T03:05:30.004Z,1.43
2018-09-30T03:08:03.601Z,1.70
2018-09-30T03:10:31.667Z,1.70
2018-09-30T03:13:00.006Z,1.83
2018-09-30T03:15:28.100Z,1.50
2018-09-30T03:17:56.181Z,2.10
2018-09-30T03:20:24.216Z,2.53
2018-09-30T03:22:52.255Z,1.57
2018-09-30T03:25:20.366Z,1.40
2018-09-30T03:27:48.445Z,1.60
2018-09-30T03:30:17.136Z,2.17
2018-09-30T03:32:45.236Z,1.33
2018-09-30T03:35:13.312Z,1.53
2018-09-30T03:37:41.406Z,1.93
2018-09-30T03:40:09.509Z,1.77
2018-09-30T03:42:37.569Z,1.70
2018-09-30T03:45:05.826Z,1.90
2018-09-30T03:47:33.890Z,1.77
2018-09-30T03:50:01.956Z,2.13
2018-09-30T03:52:30.020Z,1.83
2018-09-30T03:54:58.095Z,1.57
2018-09-30T03:57:26.140Z,2.07
2018-09-30T03:59:54.213Z,1.40
2018-09-30T04:02:22.293Z,1.73
2018-09-30T04:04:50.444Z,1.40
2018-09-30T04:07:18.687Z,1.53
2018-09-30T04:09:46.752Z,1.67
2018-09-30T04:12:14.820Z,1.80
2018-09-30T04:14:42.902Z,1.87
2018-09-30T04:17:11.007Z,1.97
2018-09-30T04:19:39.132Z,1.60
2018-09-30T04:22:08.121Z,1.50
2018-09-30T04:24:36.170Z,2.03
2018-09-30T04:27:04.227Z,1.87
2018-09-30T04:29:32.309Z,1.97
2018-09-30T04:32:00.854Z,1.97
2018-09-30T04:34:28.921Z,1.70
2018-09-30T04:36:56.997Z,1.60
2018-09-30T04:39:25.060Z,1.80
2018-09-30T04:41:53.124Z,1.60
2018-09-30T04:44:21.151Z,1.93
2018-09-30T04:46:49.186Z,1.70
2018-09-30T04:49:17.283Z,2.03
2018-09-30T04:51:45.327Z,1.83
2018-09-30T04:54:13.377Z,1.90
2018-09-30T04:56:41.438Z,1.80
2018-09-30T04:59:09.477Z,1.80
2018-09-30T05:01:37.612Z,1.60
2018-09-30T05:04:05.677Z,1.70
2018-09-30T05:06:33.762Z,2.03
2018-09-30T05:09:01.837Z,1.80
2018-09-30T05:11:29.936Z,1.57
2018-09-30T05:13:58.013Z,1.63
2018-09-30T05:16:26.096Z,1.83
2018-09-30T05:18:54.112Z,1.80
2018-09-30T05:21:22.248Z,2.20
2018-09-30T05:23:50.368Z,2.13
2018-09-30T05:26:18.437Z,2.13
2018-09-30T05:28:46.466Z,2.00
2018-09-30T05:31:14.626Z,2.83
2018-09-30T05:33:42.696Z,2.00
2018-09-30T05:36:10.803Z,2.37
2018-09-30T05:38:38.842Z,1.93
2018-09-30T05:41:06.927Z,2.23
2018-09-30T05:43:35.012Z,2.00
2018-09-30T05:46:03.084Z,1.87
2018-09-30T05:48:31.147Z,1.70
2018-09-30T05:50:59.198Z,1.90
2018-09-30T05:53:27.274Z,1.57
2018-09-30T05:55:55.306Z,1.53
2018-09-30T05:58:23.362Z,2.17
2018-09-30T06:00:51.461Z,1.87
2018-09-30T06:03:19.490Z,1.70
2018-09-30T06:05:47.549Z,2.43
2018-09-30T06:08:15.581Z,2.37
2018-09-30T06:10:43.639Z,2.77
2018-09-30T06:13:11.828Z,2.13
2018-09-30T06:15:39.956Z,3.13
2018-09-30T06:18:08.084Z,2.00
2018-09-30T06:20:36.188Z,2.17
2018-09-30T06:23:04.347Z,2.17
2018-09-30T06:25:32.475Z,2.40
2018-09-30T06:28:00.553Z,2.17
2018-09-30T06:30:28.743Z,1.63
2018-09-30T06:32:56.873Z,1.90
2018-09-30T06:35:25.074Z,1.57
2018-09-30T06:37:53.286Z,1.37
2018-09-30T06:40:21.516Z,2.10
2018-09-30T06:42:49.564Z,1.70
2018-09-30T06:45:17.772Z,1.60
2018-09-30T06:47:45.923Z,1.77
2018-09-30T06:50:14.084Z,2.13
2018-09-30T06:52:42.258Z,2.50
2018-09-30T06:55:10.425Z,2.80
2018-09-30T06:57:38.474Z,2.13
2018-09-30T07:00:06.620Z,2.07
2018-09-30T07:02:34.658Z,2.07
2018-09-30T07:05:03.154Z,2.07
2018-09-30T07:07:31.193Z,1.60
2018-09-30T07:09:59.259Z,1.80
2018-09-30T07:12:27.322Z,2.07
2018-09-30T07:14:55.404Z,1.57
2018-09-30T07:17:23.508Z,1.70
2018-09-30T07:19:51.672Z,2.13
2018-09-30T07:22:19.782Z,1.70
2018-09-30T07:24:47.853Z,1.90
2018-09-30T07:27:15.946Z,1.70
2018-09-30T07:29:43.999Z,1.63
2018-09-30T07:32:12.304Z,1.83
2018-09-30T07:34:40.385Z,1.97
2018-09-30T07:37:09.400Z,2.17
2018-09-30T07:39:37.547Z,2.50
2018-09-30T07:42:05.570Z,1.90
2018-09-30T07:44:33.667Z,1.80
2018-09-30T07:47:01.772Z,2.00
2018-09-30T07:49:30.669Z,2.00
2018-09-30T07:51:58.770Z,1.77
2018-09-30T07:54:26.945Z,2.00
2018-09-30T07:56:55.036Z,1.90
2018-09-30T07:59:23.149Z,1.73
2018-09-30T08:01:51.304Z,1.63
2018-09-30T08:04:19.415Z,1.40
2018-09-30T08:06:47.499Z,1.83
2018-09-30T08:09:15.552Z,2.00
2018-09-30T08:11:43.658Z,1.77
2018-09-30T08:14:11.725Z,1.50
2018-09-30T08:16:39.967Z,1.43
2018-09-30T08:19:07.992Z,1.63
2018-09-30T08:21:36.051Z,1.80
2018-09-30T08:24:04.283Z,1.90
2018-09-30T08:26:32.316Z,1.70
2018-09-30T08:29:00.375Z,1.73
2018-09-30T08:31:28.740Z,1.30
2018-09-30T08:33:56.795Z,1.97
2018-09-30T08:36:24.913Z,1.63
2018-09-30T08:38:52.993Z,1.67
2018-09-30T08:41:21.142Z,2.00
2018-09-30T08:43:49.241Z,1.53
2018-09-30T08:46:17.340Z,1.83
2018-09-30T08:48:45.418Z,1.95
2018-09-30T08:51:13.522Z,1.72
2018-09-30T08:53:41.655Z,1.60
2018-09-30T08:56:09.736Z,1.72
2018-09-30T08:58:37.815Z,2.10
2018-09-30T09:01:06.227Z,1.67
2018-09-30T09:03:35.076Z,1.87
2018-09-30T09:06:03.125Z,1.70
2018-09-30T09:08:31.205Z,1.42
2018-09-30T09:10:59.240Z,1.62
2018-09-30T09:13:27.290Z,1.80
2018-09-30T09:15:55.356Z,1.60
2018-09-30T09:18:23.443Z,2.00
2018-09-30T09:20:51.544Z,2.00
2018-09-30T09:23:19.612Z,1.87
2018-09-30T09:25:47.748Z,1.98
2018-09-30T09:28:15.831Z,1.82
2018-09-30T09:30:43.900Z,2.33
2018-09-30T09:33:11.984Z,2.00
2018-09-30T09:35:40.019Z,1.85
2018-09-30T09:38:08.069Z,2.02
2018-09-30T09:40:36.129Z,2.20
2018-09-30T09:43:04.219Z,2.00
2018-09-30T09:45:32.359Z,2.02
2018-09-30T09:48:00.555Z,1.72
2018-09-30T09:50:28.633Z,1.80
2018-09-30T09:52:56.682Z,2.10
2018-09-30T09:55:24.782Z,1.82
2018-09-30T09:57:52.876Z,1.60
2018-09-30T10:00:26.407Z,1.87
2018-09-30T10:02:54.500Z,2.00
2018-09-30T10:05:22.580Z,1.67
2018-09-30T10:07:50.603Z,1.87
2018-09-30T10:10:18.726Z,2.30
2018-09-30T10:12:47.109Z,1.60
2018-09-30T10:15:15.132Z,1.50
2018-09-30T10:17:43.215Z,1.70
2018-09-30T10:20:11.430Z,1.80
2018-09-30T10:22:40.092Z,1.98
2018-09-30T10:25:08.138Z,1.57
2018-09-30T10:27:36.190Z,1.92
2018-09-30T10:30:04.404Z,1.50
2018-09-30T10:32:32.453Z,1.70
2018-09-30T10:35:00.585Z,1.52
2018-09-30T10:37:28.682Z,1.30
2018-09-30T10:39:56.737Z,1.45
2018-09-30T10:42:24.826Z,1.65
2018-09-30T10:44:52.875Z,1.87
2018-09-30T10:47:20.981Z,1.20
2018-09-30T10:49:49.089Z,1.37
2018-09-30T10:52:17.162Z,1.40
2018-09-30T10:54:45.246Z,1.53
2018-09-30T10:57:13.349Z,1.40
2018-09-30T10:59:41.421Z,1.80
2018-09-30T11:02:09.488Z,1.37
2018-09-30T11:04:37.648Z,1.53
2018-09-30T11:07:06.045Z,1.47
2018-09-30T11:09:34.127Z,1.47
2018-09-30T11:12:02.249Z,1.40
2018-09-30T11:14:30.398Z,1.47
2018-09-30T11:16:58.484Z,1.75
2018-09-30T11:19:26.601Z,1.32
2018-09-30T11:21:54.670Z,1.52
2018-09-30T11:24:22.715Z,1.50
2018-09-30T11:26:50.918Z,1.42
2018-09-30T11:29:19.015Z,1.80
2018-09-30T11:31:47.306Z,2.00
2018-09-30T11:34:15.411Z,1.55
2018-09-30T11:36:44.053Z,1.67
2018-09-30T11:39:12.751Z,2.17
2018-09-30T11:41:41.852Z,1.50
2018-09-30T11:44:09.999Z,2.05
2018-09-30T11:46:38.145Z,1.80
2018-09-30T11:49:06.281Z,2.22
2018-09-30T11:51:34.352Z,2.20
2018-09-30T11:54:02.611Z,1.75
2018-09-30T11:56:30.765Z,2.00
2018-09-30T11:58:58.859Z,1.52
2018-09-30T12:01:26.919Z,1.92
2018-09-30T12:03:54.989Z,1.62
2018-09-30T12:06:23.093Z,1.70
2018-09-30T12:08:51.257Z,1.45
2018-09-30T12:11:19.344Z,1.62
2018-09-30T12:13:47.433Z,1.62
2018-09-30T12:16:15.537Z,1.70
2018-09-30T12:18:43.656Z,1.80
2018-09-30T12:21:11.720Z,1.72
2018-09-30T12:23:39.816Z,1.92
2018-09-30T12:26:07.911Z,1.62
2018-09-30T12:28:36.064Z,1.62
2018-09-30T12:31:04.144Z,1.87
2018-09-30T12:33:32.329Z,1.90
2018-09-30T12:36:00.436Z,1.90
2018-09-30T12:38:28.506Z,1.45
2018-09-30T12:40:56.572Z,1.85
2018-09-30T12:43:24.648Z,2.20
2018-09-30T12:45:52.709Z,1.98
2018-09-30T12:48:20.768Z,2.05
2018-09-30T12:50:48.830Z,1.72
2018-09-30T12:53:16.914Z,1.80
2018-09-30T12:55:44.976Z,1.70
2018-09-30T12:58:13.141Z,2.10
2018-09-30T13:00:41.292Z,1.60
2018-09-30T13:03:09.372Z,1.90
2018-09-30T13:05:37.486Z,2.15
2018-09-30T13:08:05.605Z,1.90
2018-09-30T13:10:33.762Z,2.15
2018-09-30T13:13:01.857Z,1.75
2018-09-30T13:15:29.968Z,1.52
2018-09-30T13:17:58.075Z,1.60
2018-09-30T13:20:27.248Z,2.20
2018-09-30T13:22:55.305Z,1.70
2018-09-30T13:25:23.397Z,2.42
2018-09-30T13:27:51.549Z,1.85
2018-09-30T13:30:19.780Z,2.02
2018-09-30T13:32:47.840Z,1.50
2018-09-30T13:35:15.999Z,1.60
2018-09-30T13:37:44.060Z,1.83
2018-09-30T13:40:12.195Z,1.67
2018-09-30T13:42:40.253Z,1.60
2018-09-30T13:45:08.913Z,1.90
2018-09-30T13:47:37.006Z,2.03
2018-09-30T13:50:05.222Z,1.72
2018-09-30T13:52:33.312Z,2.00
2018-09-30T13:55:01.408Z,1.77
2018-09-30T13:57:29.505Z,1.75
2018-09-30T13:59:57.761Z,1.95
2018-09-30T14:02:25.939Z,2.08
2018-09-30T14:04:53.995Z,1.85
2018-09-30T14:07:22.106Z,1.60
2018-09-30T14:09:50.227Z,1.87
2018-09-30T14:12:18.376Z,1.80
2018-09-30T14:14:46.475Z,1.82
2018-09-30T14:17:14.560Z,1.87
2018-09-30T14:19:42.607Z,1.35
2018-09-30T14:22:10.708Z,1.90
2018-09-30T14:24:38.804Z,2.02
2018-09-30T14:27:06.918Z,1.82
2018-09-30T14:29:34.965Z,2.10
2018-09-30T14:32:03.140Z,1.67
2018-09-30T14:34:31.187Z,1.73
2018-09-30T14:36:59.255Z,1.83
2018-09-30T14:39:27.430Z,1.53
2018-09-30T14:41:55.486Z,1.43
2018-09-30T14:44:23.594Z,1.63
2018-09-30T14:46:51.652Z,2.07
2018-09-30T14:49:19.695Z,1.50
2018-09-30T14:51:47.796Z,1.73
2018-09-30T14:54:15.873Z,1.63
2018-09-30T14:56:43.992Z,1.57
2018-09-30T14:59:12.166Z,1.77
2018-09-30T15:01:40.224Z,1.63
2018-09-30T15:04:08.303Z,1.83
2018-09-30T15:06:36.365Z,1.60
2018-09-30T15:09:07.057Z,1.90
2018-09-30T15:11:35.161Z,1.77
2018-09-30T15:14:03.284Z,1.73
2018-09-30T15:16:31.393Z,1.50
2018-09-30T15:18:59.476Z,1.90
2018-09-30T15:21:27.597Z,1.97
2018-09-30T15:23:55.763Z,1.43
2018-09-30T15:26:23.912Z,2.43
2018-09-30T15:28:51.977Z,1.70
2018-09-30T15:31:20.089Z,2.10
2018-09-30T15:33:48.175Z,2.00
2018-09-30T15:36:16.329Z,2.33
2018-09-30T15:38:44.477Z,1.80
2018-09-30T15:41:12.554Z,1.60
2018-09-30T15:43:40.705Z,2.03
2018-09-30T15:46:08.805Z,1.87
2018-09-30T15:48:36.885Z,2.60
2018-09-30T15:51:05.033Z,2.40
2018-09-30T15:53:33.107Z,3.00
2018-09-30T15:56:01.173Z,3.13
2018-09-30T15:58:29.245Z,2.67
2018-09-30T16:00:57.307Z,3.17
2018-09-30T16:03:25.400Z,1.90
2018-09-30T16:05:53.489Z,1.73
2018-09-30T16:08:21.624Z,2.27
2018-09-30T16:10:49.789Z,2.53
2018-09-30T16:13:17.857Z,1.83
2018-09-30T16:15:46.028Z,1.97
2018-09-30T16:18:14.214Z,2.03
2018-09-30T16:20:42.427Z,1.60
2018-09-30T16:23:10.624Z,2.13
2018-09-30T16:25:38.757Z,2.87
2018-09-30T16:28:06.899Z,2.57
2018-09-30T16:30:35.074Z,2.97
2018-09-30T16:33:03.147Z,3.70
2018-09-30T16:35:31.212Z,4.37
2018-09-30T16:37:59.282Z,4.40
2018-09-30T16:40:27.337Z,5.50
2018-09-30T16:42:55.504Z,5.63
2018-09-30T16:45:23.556Z,4.53
2018-09-30T16:47:51.654Z,4.03
2018-09-30T16:50:19.729Z,4.77
2018-09-30T16:52:47.818Z,3.70
2018-09-30T16:55:15.885Z,3.80
2018-09-30T16:57:43.932Z,4.60
2018-09-30T17:00:12.008Z,4.00
2018-09-30T17:02:40.077Z,5.30
2018-09-30T17:05:08.184Z,5.13
2018-09-30T17:07:36.684Z,4.67
2018-09-30T17:10:05.935Z,5.40
2018-09-30T17:12:34.157Z,4.77
2018-09-30T17:15:04.372Z,4.90
2018-09-30T17:17:34.234Z,3.87
2018-09-30T17:20:02.362Z,3.90
2018-09-30T17:22:30.493Z,3.93
2018-09-30T17:24:58.565Z,4.60
2018-09-30T17:27:26.633Z,4.67
2018-09-30T17:29:54.696Z,5.47
2018-09-30T17:32:22.777Z,5.90
2018-09-30T17:34:50.866Z,5.20
2018-09-30T17:37:19.383Z,4.83
2018-09-30T17:39:47.444Z,5.40
2018-09-30T17:42:15.492Z,5.07
2018-09-30T17:44:43.564Z,4.70
2018-09-30T17:47:11.640Z,5.00
2018-09-30T17:49:39.728Z,4.77
2018-09-30T17:52:07.807Z,4.33
2018-09-30T17:54:35.915Z,5.00
2018-09-30T17:57:04.011Z,4.07
2018-09-30T17:59:32.064Z,4.30
2018-09-30T18:02:00.177Z,4.13
2018-09-30T18:04:28.615Z,4.27
2018-09-30T18:06:56.733Z,3.87
2018-09-30T18:09:24.894Z,4.63
2018-09-30T18:11:52.972Z,3.90
2018-09-30T18:14:21.097Z,4.53
2018-09-30T18:16:49.209Z,3.83
2018-09-30T18:19:17.296Z,4.13
2018-09-30T18:21:45.701Z,3.43
2018-09-30T18:24:14.143Z,4.33
2018-09-30T18:26:43.743Z,4.00
2018-09-30T18:29:12.123Z,3.50
2018-09-30T18:31:40.533Z,3.33
2018-09-30T18:34:08.959Z,3.43
2018-09-30T18:36:37.472Z,3.03
2018-09-30T18:39:09.048Z,3.30
2018-09-30T18:41:37.595Z,5.23
2018-09-30T18:44:06.073Z,4.20
2018-09-30T18:46:34.894Z,2.90
2018-09-30T18:49:03.535Z,3.57
2018-09-30T18:51:32.121Z,2.73
2018-09-30T18:54:00.944Z,2.63
2018-09-30T18:56:29.372Z,2.73
2018-09-30T18:58:58.079Z,3.33
2018-09-30T19:01:26.574Z,3.67
2018-09-30T19:03:55.615Z,3.37
2018-09-30T19:06:24.267Z,3.47
2018-09-30T19:08:52.883Z,2.70
2018-09-30T19:11:21.484Z,3.07
2018-09-30T19:13:50.432Z,2.97
2018-09-30T19:16:20.087Z,2.90
2018-09-30T19:18:48.583Z,2.43
2018-09-30T19:21:17.136Z,3.23
2018-09-30T19:23:45.588Z,2.53
2018-09-30T19:26:13.705Z,2.67
2018-09-30T19:28:41.817Z,3.07
2018-09-30T19:31:09.890Z,3.03
2018-09-30T19:33:38.191Z,2.77
2018-09-30T19:36:06.381Z,3.33
2018-09-30T19:38:34.463Z,3.03
2018-09-30T19:41:02.597Z,2.10
2018-09-30T19:43:31.008Z,3.00
2018-09-30T19:45:59.149Z,3.17
2018-09-30T19:48:27.712Z,2.70
2018-09-30T19:50:55.813Z,2.50
2018-09-30T19:53:23.902Z,2.33
2018-09-30T19:55:52.217Z,2.63
2018-09-30T19:58:20.552Z,2.30
2018-09-30T20:00:48.969Z,7.10
2018-09-30T20:03:17.129Z,8.10
2018-09-30T20:05:45.308Z,4.97
2018-09-30T20:08:13.463Z,4.10
2018-09-30T20:10:41.617Z,2.37
2018-09-30T20:13:09.701Z,2.50
2018-09-30T20:15:37.771Z,2.63
2018-09-30T20:18:05.899Z,2.67
2018-09-30T20:20:33.992Z,2.60
2018-09-30T20:23:02.132Z,2.37
2018-09-30T20:25:30.286Z,3.00
2018-09-30T20:27:58.478Z,2.93
2018-09-30T20:30:26.536Z,3.23
2018-09-30T20:32:54.816Z,2.87
2018-09-30T20:35:23.034Z,2.57
2018-09-30T20:37:51.300Z,2.90
2018-09-30T20:40:19.558Z,2.90
2018-09-30T20:42:47.822Z,3.20
2018-09-30T20:45:16.116Z,3.53
2018-09-30T20:47:44.356Z,3.10
2018-09-30T20:50:13.091Z,3.33
2018-09-30T20:52:41.332Z,3.57
2018-09-30T20:55:09.525Z,3.17
2018-09-30T20:57:37.802Z,3.90
2018-09-30T21:00:06.371Z,3.27
2018-09-30T21:02:34.970Z,2.60
2018-09-30T21:05:19.191Z,3.07
2018-09-30T21:07:47.345Z,3.03
2018-09-30T21:10:15.630Z,3.57
2018-09-30T21:12:43.810Z,3.10
2018-09-30T21:15:11.846Z,2.50
2018-09-30T21:17:39.972Z,3.33
2018-09-30T21:20:08.083Z,3.10
2018-09-30T21:22:36.218Z,3.77
2018-09-30T21:25:04.357Z,3.73
2018-09-30T21:27:32.447Z,3.67
2018-09-30T21:30:00.583Z,3.10
2018-09-30T21:32:28.730Z,3.10
2018-09-30T21:34:56.891Z,3.33
2018-09-30T21:37:25.166Z,4.47
2018-09-30T21:39:53.256Z,3.93
2018-09-30T21:42:21.351Z,4.03
2018-09-30T21:44:49.480Z,3.93
2018-09-30T21:47:17.700Z,3.43
2018-09-30T21:49:45.756Z,4.17
2018-09-30T21:52:13.854Z,4.37
2018-09-30T21:54:41.888Z,4.67
2018-09-30T21:57:10.629Z,4.30
2018-09-30T21:59:38.724Z,4.07
2018-09-30T22:02:06.831Z,3.70
2018-09-30T22:04:34.938Z,3.90
2018-09-30T22:07:03.077Z,3.97
2018-09-30T22:09:31.350Z,3.83
2018-09-30T22:11:59.461Z,4.30
2018-09-30T22:14:27.560Z,3.20
2018-09-30T22:16:55.693Z,3.87
2018-09-30T22:19:23.870Z,3.73
2018-09-30T22:21:51.900Z,3.63
2018-09-30T22:24:20.055Z,3.90
2018-09-30T22:26:48.192Z,3.40
2018-09-30T22:29:16.258Z,3.83
2018-09-30T22:31:44.367Z,3.97
2018-09-30T22:34:12.565Z,3.43
2018-09-30T22:36:40.777Z,3.00
2018-09-30T22:39:08.893Z,3.20
2018-09-30T22:41:37.116Z,3.67
2018-09-30T22:44:05.214Z,3.23
2018-09-30T22:46:33.348Z,3.37
2018-09-30T22:49:01.496Z,3.00
2018-09-30T22:51:29.655Z,3.23
2018-09-30T22:53:57.901Z,3.60
2018-09-30T22:56:26.034Z,3.17
2018-09-30T22:58:54.101Z,3.13
2018-09-30T23:01:22.200Z,2.97
2018-09-30T23:03:50.267Z,3.53
2018-09-30T23:06:18.412Z,3.30
2018-09-30T23:08:46.557Z,3.40
2018-09-30T23:11:14.668Z,3.33
2018-09-30T23:13:42.729Z,4.10
2018-09-30T23:16:10.824Z,3.90
2018-09-30T23:18:38.928Z,3.77
2018-09-30T23:21:07.024Z,3.27
2018-09-30T23:23:35.064Z,3.67
2018-09-30T23:26:03.174Z,3.70
2018-09-30T23:28:31.247Z,3.37
2018-09-30T23:30:59.343Z,3.60
2018-09-30T23:33:27.408Z,3.87
2018-09-30T23:35:55.480Z,3.33
2018-09-30T23:38:24.277Z,3.30
2018-09-30T23:40:52.352Z,3.37
2018-09-30T23:43:20.411Z,3.60
2018-09-30T23:45:48.490Z,3.57
2018-09-30T23:48:16.576Z,3.37
2018-09-30T23:50:44.616Z,3.37
2018-09-30T23:53:12.658Z,3.07
2018-09-30T23:55:40.765Z,2.93
2018-09-30T23:58:12.092Z,3.00
